Latest Weather Observations for Nuriootpa

IDS60901

Issued at 9:01 pm CDT Monday 23 January 2017 (issued every 10 minutes, with the page automatically refreshed every 10 minutes)

About weather observations | Map of Adelaide area stations | Latest observations for Adelaide area | Other Formats
Station Details ID: 023373 Name: NURIOOTPA PIRSA Lat: -34.48 Lon: 139.01 Height: 275.0 m
Data from the previous 72 hours. | See also: Recent months at Nuriootpa
Date/Time
CDT
Temp
°C
App
Temp
°C
Dew
Point
°C
Rel
Hum
%
Delta-T
°C
Wind Press
QNH
hPa
Press
MSL
hPa
Rain since
9am
mm
Dir  Spd
km/h
Gust
km/h
Spd
kts
Gust
kts
23/08:30pm 21.4 22.9 20.5 95 0.6 WSW 13 17 7 9 1008.0 1006.8 7.8
23/08:00pm 21.3 23.5 20.4 95 0.6 W 9 13 5 7 1007.0 1005.8 7.8
23/07:30pm 21.3 23.7 20.1 93 0.8 NNW 7 11 4 6 1006.5 1005.3 7.4
23/07:00pm 21.3 22.5 19.9 92 0.9 W 13 22 7 12 1006.8 1005.5 7.0
23/06:30pm 22.2 24.7 21.1 93 0.7 SW 9 15 5 8 1006.5 1005.3 4.2
23/06:00pm 22.1 24.8 21.3 95 0.5 WSW 9 13 5 7 1006.7 1005.4 4.2
23/05:30pm 21.8 22.8 21.0 95 0.5 SW 17 22 9 12 1006.4 1005.2 3.0
23/05:00pm 22.4 22.2 20.6 89 1.2 SW 22 32 12 17 1007.0 1005.8 0.4
23/04:30pm 24.0 24.2 20.5 81 2.3 WSW 20 32 11 17 1006.9 1005.6 0.0
23/04:00pm 26.5 24.1 19.0 63 4.9 WSW 30 37 16 20 1006.8 1005.5 0.0
23/03:30pm 29.3 27.9 18.0 50 7.3 WSW 22 35 12 19 1006.5 1005.3 0.0
23/03:00pm 29.4 29.2 16.8 46 8.0 SW 13 19 7 10 1006.1 1004.9 0.0
23/02:30pm 28.7 28.5 16.7 48 7.6 SW 13 20 7 11 1005.9 1004.7 0.0
23/02:00pm 27.6 26.0 15.1 46 7.7 SW 17 26 9 14 1006.3 1005.1 0.0
23/01:30pm 27.5 24.6 15.0 46 7.7 WSW 24 35 13 19 1007.2 1006.0 0.0
23/01:00pm 28.8 24.8 12.9 37 9.5 WSW 26 37 14 20 1007.0 1005.8 0.0
23/12:30pm 30.0 24.9 11.9 32 10.7 WSW 30 41 16 22 1006.9 1005.6 0.0
23/12:00pm 30.7 25.4 9.8 27 12.0 W 28 39 15 21 1006.8 1005.5 0.0
23/11:47am 31.4 25.3 6.8 21 13.5 W 28 46 15 25 1006.7 1005.4 0.0
23/11:30am 32.7 28.4 7.1 20 14.2 WNW 19 28 10 15 1006.3 1005.1 0.0
23/11:00am 32.8 28.5 7.0 20 14.3 WNW 19 30 10 16 1006.2 1005.0 0.0
23/10:30am 32.6 30.0 6.0 19 14.5 WNW 9 24 5 13 1006.0 1004.8 0.0
23/10:00am 31.4 29.7 8.5 24 12.9 N 7 13 4 7 1006.2 1005.0 0.0
23/09:30am 30.0 27.3 7.2 24 12.5 N 11 15 6 8 1006.2 1005.0 0.0
23/09:00am 28.9 27.2 9.7 30 10.9 NE 9 11 5 6 1006.4 1005.2 0.0
23/08:30am 27.2 25.5 11.3 37 9.2 NE 11 15 6 8 1006.7 1005.4 0.0
23/08:00am 25.6 24.8 11.6 41 8.1 NE 7 9 4 5 1006.8 1005.5 0.0
23/07:30am 23.5 23.7 14.1 55 5.6 NE 6 7 3 4 1006.3 1005.1 0.0
23/07:00am 22.2 23.8 14.9 63 4.4 CALM 0 0 0 0 1006.2 1005.0 0.0
23/06:30am 21.6 23.4 15.5 68 3.7 CALM 0 4 0 2 1006.1 1004.9 0.0
23/06:00am 21.8 23.1 14.2 62 4.5 CALM 0 4 0 2 1006.1 1004.9 0.0
23/05:30am 21.8 21.5 12.6 56 5.3 NE 6 7 3 4 1006.0 1004.8 0.0
23/05:00am 22.1 21.5 11.7 51 5.9 NE 6 7 3 4 1005.8 1004.6 0.0
23/04:30am 22.3 21.5 10.9 48 6.4 NE 6 7 3 4 1006.1 1004.9 0.0
23/04:00am 23.4 21.1 7.6 36 8.4 ENE 9 13 5 7 1006.2 1005.0 0.0
23/03:30am 23.9 21.3 7.6 35 8.7 ENE 11 13 6 7 1006.3 1005.1 0.0
23/03:00am 24.1 21.5 7.6 34 8.8 E 11 17 6 9 1006.7 1005.4 0.0
23/02:30am 23.9 22.2 8.4 37 8.4 E 7 11 4 6 1007.3 1006.1 0.0
23/02:00am 24.0 22.2 8.0 36 8.6 E 7 17 4 9 1007.9 1006.7 0.0
23/01:30am 23.3 22.9 12.4 50 6.3 S 6 7 3 4 1008.6 1007.4 0.0
23/01:00am 24.1 22.9 9.4 39 8.1 E 6 11 3 6 1008.9 1007.7 0.0
23/12:30am 24.1 23.1 10.4 42 7.7 NE 6 11 3 6 1008.9 1007.7 0.0
23/12:00am 23.9 23.0 11.2 44 7.2 ENE 7 11 4 6 1008.8 1007.6 0.0
 
Date/Time
CDT
Temp
°C
App
Temp
°C
Dew
Point
°C
Rel
Hum
%
Delta-T
°C
Wind Press
QNH
hPa
Press
MSL
hPa
Rain since
9am
mm
Dir  Spd
km/h
Gust
km/h
Spd
kts
Gust
kts
22/11:30pm 24.0 23.1 10.7 43 7.5 ENE 6 11 3 6 1008.8 1007.6 0.0
22/11:00pm 24.1 24.3 11.7 45 7.1 NNE 2 7 1 4 1008.7 1007.5 0.0
22/10:30pm 24.8 24.4 9.7 38 8.4 NE 2 9 1 5 1008.6 1007.4 0.0
22/10:00pm 24.8 23.8 10.9 41 7.9 ESE 7 11 4 6 1008.6 1007.4 0.0
22/09:30pm 24.6 26.2 16.0 58 5.3 SSE 2 6 1 3 1009.0 1007.8 0.0
22/09:00pm 25.2 24.2 12.3 44 7.5 SSW 9 9 5 5 1009.0 1007.8 0.0
22/08:30pm 26.6 24.5 9.7 34 9.5 WSW 11 13 6 7 1009.2 1008.0 0.0
22/08:00pm 27.8 25.2 9.5 31 10.3 WSW 13 19 7 10 1009.3 1008.1 0.0
22/07:30pm 29.1 25.6 8.7 28 11.4 SW 17 22 9 12 1009.1 1007.9 0.0
22/07:00pm 30.2 27.7 9.7 28 11.7 WSW 13 19 7 10 1008.8 1007.6 0.0
22/06:30pm 32.9 29.9 5.9 18 14.7 NNE 11 17 6 9 1008.5 1007.3 0.0
22/06:00pm 32.8 29.1 4.3 16 15.1 NE 13 17 7 9 1008.5 1007.3 0.0
22/05:30pm 32.1 29.5 5.9 19 14.2 NE 9 17 5 9 1008.7 1007.5 0.0
22/05:00pm 31.8 27.6 3.6 17 14.7 ENE 15 20 8 11 1009.1 1007.9 0.0
22/04:30pm 32.0 28.1 3.6 16 14.8 NE 13 19 7 10 1009.4 1008.2 0.0
22/04:00pm 31.5 27.9 2.9 16 14.7 NNE 11 17 6 9 1009.8 1008.6 0.0
22/03:30pm 31.4 28.2 3.0 16 14.6 NNE 9 19 5 10 1010.0 1008.8 0.0
22/03:00pm 31.8 27.8 2.8 16 14.9 NE 13 24 7 13 1010.6 1009.4 0.0
22/02:30pm 31.3 26.8 2.4 16 14.7 NNE 15 22 8 12 1010.8 1009.6 0.0
22/02:00pm 30.9 27.1 3.7 18 14.1 N 13 20 7 11 1011.1 1009.9 0.0
22/01:30pm 30.9 27.9 4.1 18 14.0 NNE 9 22 5 12 1011.4 1010.2 0.0
22/01:00pm 29.6 25.5 4.1 19 13.2 NE 15 22 8 12 1011.9 1010.7 0.0
22/12:30pm 29.1 24.7 4.5 21 12.8 N 17 26 9 14 1012.5 1011.3 0.0
22/12:00pm 28.7 24.5 4.0 20 12.7 NNE 15 24 8 13 1013.0 1011.8 0.0
22/11:30am 27.7 23.3 5.0 23 11.8 NNE 17 26 9 14 1013.4 1012.3 0.0
22/11:00am 27.0 22.9 6.2 26 11.0 NNE 17 24 9 13 1013.7 1012.6 0.0
22/10:30am 25.9 21.9 6.6 29 10.2 NNE 17 26 9 14 1013.8 1012.7 0.0
22/10:00am 24.6 21.2 9.1 37 8.5 NE 17 22 9 12 1013.8 1012.7 0.0
22/09:30am 23.5 19.9 8.5 38 8.1 NE 17 20 9 11 1013.9 1012.8 0.0
22/09:00am 22.3 18.8 8.7 41 7.3 NE 17 22 9 12 1014.0 1012.9 0.0
22/08:30am 21.2 18.6 9.4 47 6.4 ENE 13 20 7 11 1013.9 1012.8 0.0
22/08:00am 19.8 18.0 9.4 51 5.6 ENE 9 17 5 9 1013.7 1012.6 0.0
22/07:30am 16.7 16.6 12.0 74 2.6 ENE 4 7 2 4 1013.7 1012.6 0.0
22/07:00am 14.1 13.2 11.5 84 1.4 NE 7 9 4 5 1013.5 1012.4 0.0
22/06:30am 14.7 13.6 10.6 76 2.2 ENE 7 13 4 7 1013.2 1012.0 0.0
22/06:00am 15.0 13.2 10.7 75 2.3 ESE 11 17 6 9 1012.9 1011.7 0.0
22/05:30am 15.3 14.0 11.2 76 2.2 E 9 15 5 8 1012.8 1011.6 0.0
22/05:00am 15.4 13.8 11.6 78 2.1 E 11 17 6 9 1012.8 1011.6 0.0
22/04:30am 15.6 13.7 11.8 78 2.1 ENE 13 19 7 10 1012.8 1011.6 0.0
22/04:00am 15.6 14.5 12.0 79 2.0 ENE 9 17 5 9 1012.9 1011.7 0.0
22/03:30am 15.8 14.3 12.0 78 2.1 ENE 11 17 6 9 1013.1 1011.9 0.0
22/03:00am 15.6 14.6 12.2 80 1.9 ENE 9 19 5 10 1013.2 1012.0 0.0
22/02:30am 15.6 14.3 12.4 81 1.8 E 11 19 6 10 1013.3 1012.2 0.0
22/02:00am 15.5 13.8 12.4 82 1.7 E 13 26 7 14 1013.7 1012.6 0.0
22/01:30am 15.8 13.0 12.6 81 1.8 SE 19 26 10 14 1013.9 1012.8 0.0
22/01:00am 15.9 12.8 12.3 79 2.0 SE 20 32 11 17 1014.1 1013.0 0.0
22/12:30am 16.2 13.0 12.0 76 2.3 SE 20 32 11 17 1014.1 1013.0 0.0
22/12:00am 16.5 12.9 12.0 75 2.5 SE 22 32 12 17 1014.1 1013.0 0.0
 
Date/Time
CDT
Temp
°C
App
Temp
°C
Dew
Point
°C
Rel
Hum
%
Delta-T
°C
Wind Press
QNH
hPa
Press
MSL
hPa
Rain since
9am
mm
Dir  Spd
km/h
Gust
km/h
Spd
kts
Gust
kts
21/11:30pm 16.8 13.7 12.1 74 2.6 SE 20 33 11 18 1014.3 1013.1 0.0
21/11:00pm 17.0 14.1 12.3 74 2.6 SE 19 28 10 15 1014.3 1013.1 0.0
21/10:30pm 17.7 14.7 12.4 71 3.0 SE 20 30 11 16 1014.4 1013.2 0.0
21/10:00pm 18.7 16.1 12.1 65 3.7 SE 17 28 9 15 1014.6 1013.4 0.0
21/09:30pm 19.9 16.9 11.9 60 4.5 SE 19 26 10 14 1014.5 1013.3 0.0
21/09:00pm 20.5 18.7 9.4 49 6.0 E 9 20 5 11 1014.1 1013.0 0.0
21/08:30pm 21.7 20.3 9.6 46 6.6 E 7 9 4 5 1013.8 1012.7 0.0
21/08:00pm 24.2 21.8 6.9 33 9.1 ENE 9 13 5 7 1013.7 1012.6 0.0
21/07:30pm 25.2 21.6 5.1 27 10.3 E 13 19 7 10 1013.4 1012.3 0.0
21/07:00pm 25.7 22.3 5.7 27 10.4 E 13 20 7 11 1013.2 1012.0 0.0
21/06:30pm 26.1 22.8 6.4 28 10.4 ENE 13 19 7 10 1012.9 1011.7 0.0
21/06:00pm 25.9 22.6 6.3 28 10.3 ENE 13 19 7 10 1012.9 1011.7 0.0
21/05:30pm 26.3 23.7 6.2 27 10.6 E 9 19 5 10 1013.1 1011.9 0.0
21/05:00pm 25.9 22.3 4.8 25 10.8 ENE 13 20 7 11 1013.3 1012.2 0.0
21/04:30pm 26.4 24.0 6.9 29 10.4 ENE 9 17 5 9 1013.4 1012.3 0.0
21/04:00pm 25.6 23.2 7.0 30 9.9 ENE 9 17 5 9 1013.7 1012.6 0.0
21/03:30pm 24.9 21.9 6.1 30 9.8 ESE 11 19 6 10 1013.9 1012.8 0.0
21/03:00pm 24.6 21.3 6.5 31 9.5 E 13 24 7 13 1014.1 1013.0 0.0
21/02:30pm 24.4 21.9 8.3 35 8.7 NE 11 17 6 9 1014.3 1013.1 0.0
21/02:00pm 23.3 20.5 8.7 39 7.9 ENE 13 24 7 13 1014.6 1013.4 0.0
21/01:30pm 21.8 19.0 8.5 42 7.1 ENE 13 19 7 10 1014.9 1013.7 0.0
21/01:00pm 22.0 19.9 9.8 45 6.7 NE 11 19 6 10 1015.2 1014.0 0.0
21/12:30pm 21.1 18.4 9.0 46 6.5 NE 13 19 7 10 1015.4 1014.2 0.0
21/12:00pm 20.4 18.2 9.5 49 5.9 ENE 11 19 6 10 1015.7 1014.5 0.0
21/11:30am 19.1 16.0 8.7 51 5.5 E 15 22 8 12 1015.6 1014.4 0.0
21/11:00am 18.8 15.7 9.0 53 5.2 E 15 20 8 11 1015.8 1014.6 0.0
21/10:30am 17.6 14.4 8.4 55 4.8 E 15 22 8 12 1016.1 1014.9 0.0
21/10:00am 16.7 12.6 7.9 56 4.5 ENE 19 24 10 13 1016.2 1015.0 0.0
21/09:30am 16.2 12.7 8.9 62 3.8 E 17 24 9 13 1016.4 1015.2 0.0
21/09:00am 15.3 11.8 8.7 64 3.4 E 17 26 9 14 1016.4 1015.2 0.0
21/08:30am 14.4 10.5 8.7 68 2.9 E 19 28 10 15 1016.2 1015.0 0.0
21/08:00am 13.7 11.1 9.2 74 2.3 E 13 22 7 12 1015.8 1014.6 0.0
21/07:30am 12.8 10.6 9.3 79 1.8 ENE 11 20 6 11 1015.4 1014.2 0.0
21/07:00am 12.1 9.6 9.6 85 1.3 E 13 20 7 11 1014.9 1013.7 0.0
21/06:30am 11.7 9.2 9.6 87 1.1 ESE 13 24 7 13 1014.6 1013.4 0.0
21/06:00am 11.8 10.1 9.9 88 1.0 E 9 17 5 9 1014.4 1013.2 0.0
21/05:30am 12.4 9.5 9.7 83 1.4 SE 15 33 8 18 1014.0 1012.9 0.0
21/05:00am 12.2 10.9 10.1 87 1.1 S 7 20 4 11 1014.1 1013.0 0.0
21/04:30am 12.6 9.4 10.1 85 1.3 SE 17 37 9 20 1013.7 1012.6 0.0
21/04:00am 12.7 10.2 9.8 82 1.5 SSE 13 30 7 16 1013.4 1012.3 0.0
21/03:30am 12.5 10.8 9.8 83 1.4 S 9 13 5 7 1013.3 1012.2 0.0
21/03:00am 12.5 10.8 10.0 85 1.3 S 9 17 5 9 1013.2 1012.0 0.0
21/02:30am 12.7 11.0 9.8 82 1.5 SW 9 13 5 7 1013.2 1012.0 0.0
21/02:00am 12.8 9.9 9.7 81 1.6 S 15 22 8 12 1013.2 1012.0 0.0
21/01:30am 12.8 10.2 9.5 80 1.7 S 13 20 7 11 1013.2 1012.0 0.0
21/01:00am 12.7 11.3 9.6 81 1.6 SSE 7 15 4 8 1013.2 1012.0 0.0
21/12:30am 13.0 11.6 9.5 79 1.8 S 7 15 4 8 1013.2 1012.0 0.0
21/12:00am 13.2 11.5 9.9 80 1.7 S 9 17 5 9 1013.1 1011.9 0.0
 
Date/Time
CDT
Temp
°C
App
Temp
°C
Dew
Point
°C
Rel
Hum
%
Delta-T
°C
Wind Press
QNH
hPa
Press
MSL
hPa
Rain since
9am
mm
Dir  Spd
km/h
Gust
km/h
Spd
kts
Gust
kts
20/11:30pm 13.3 12.3 10.3 82 1.6 SSW 6 13 3 7 1012.8 1011.6 0.0
20/11:00pm 13.8 11.3 9.8 77 2.1 S 13 24 7 13 1012.5 1011.3 0.0
20/10:30pm 14.0 11.6 10.0 77 2.1 S 13 19 7 10 1012.2 1011.0 0.0
20/10:00pm 13.8 13.2 10.4 80 1.8 SSW 4 13 2 7 1012.0 1010.8 0.0
20/09:30pm 14.8 13.1 9.9 72 2.6 S 9 13 5 7 1011.7 1010.5 0.0

Latest Capital City Observations: Canberra | Sydney | Melbourne | Brisbane | Adelaide | Perth | Hobart | Darwin

Other Formats:

Comma delimited format used in spreadsheet applications
http://www.bom.gov.au/fwo/IDS60901/IDS60901.94681.axf

JavaScript Object Notation format (JSON) in row-major order
http://www.bom.gov.au/fwo/IDS60901/IDS60901.94681.json